KVKS/VKS METAR and TAF weather

Enter ICAO airport designator
Station Type Date Time Source
KVKS METAR 2024/02/26 18:55 UTC NOAA

KVKS 261855Z AUTO 19011G18KT 10SM OVC022 21/16 A2996 RMK A01


Station Type Date Time Source
KVKS Decoded METAR 2024/02/26 18:55 UTC NOAA

Vicksburg Municipal, MS, United States (KVKS) 32-14N 090-56W
Feb 26, 2024 - 01:55 PM EST / 2024.02.26 1855 UTC
Wind: from the S (190 degrees) at 13 MPH (11 KT) gusting to 21 MPH (18 KT):0
Visibility: 10 mile(s):0
Sky conditions: overcast
Temperature: 69 F (21 C)
Dew Point: 60 F (16 C)
Relative Humidity: 73%
Pressure (altimeter): 29.96 in. Hg (1014 hPa)
ob: KVKS 261855Z AUTO 19011G18KT 10SM OVC022 21/16 A2996 RMK A01
cycle: 19

Station Type Date Time Source
KVKS TAF UTC NOAA

Error!

Example: see airport list